CHO weather

Charlottesville Albemarle Airport
Charlottesville, Virginia, United States

Public forecast

Using degrees Fahrenheit for public forecast. Weather courtesy of forecast.io.

Current aviation weather report (METAR) for Charlottesville Albemarle Airport

Retrieved 2020/04/02 20:53 UTC (28 minutes ago):

KCHO 022053Z 33011G22KT 300V360 10SM CLR 17/M03 A2986 RMK AO2 SLP109 T01671033 56017

Aviation forecast (TAF) for Charlottesville Albemarle Airport

Retrieved 2020/04/02 18:40 UTC (3 hours ago):

TAF KCHO 021737Z 0218/0318 33013G22KT P6SM FEW050 FM030000 31008KT P6SM SKC FM031400 33011G18KT P6SM SKC